Time;durP1;ratioP1;P1;durP2;ratioP2;P2;SDS_P1;SDS_P2;PMS_P1;PMS_P2;Temp;Humidity;BMP_temperature;BMP_pressure;BME280_temperature;BME280_humidity;BME280_pressure;Samples;Min_cycle;Max_cycle;Signal;HPM_P1;HPM_P2
2023/07/20 00:00:18;;;;;;;2.53;1.40;;;;;;;;;;5043089;27;87666;-56
2023/07/20 00:02:46;;;;;;;1.63;1.47;;;;;;;;;;5042884;27;89846;-56
2023/07/20 00:05:18;;;;;;;1.60;1.27;;;;;;;;;;5042776;27;87271;-56
2023/07/20 00:07:46;;;;;;;2.70;0.90;;;;;;;;;;5042656;27;88957;-56
2023/07/20 00:10:14;;;;;;;2.17;1.37;;;;;;;;;;5042991;28;87258;-56
2023/07/20 00:12:47;;;;;;;1.47;0.90;;;;;;;;;;5042592;27;88639;-56
2023/07/20 00:15:17;;;;;;;1.87;0.90;;;;;;;;;;5042830;27;88006;-57
2023/07/20 00:17:45;;;;;;;3.20;1.27;;;;;;;;;;5042619;27;88150;-57
2023/07/20 00:20:14;;;;;;;1.20;1.10;;;;;;;;;;5042404;27;87820;-57
2023/07/20 00:22:42;;;;;;;1.97;0.87;;;;;;;;;;5042075;27;89915;-57
2023/07/20 00:25:12;;;;;;;0.90;0.90;;;;;;;;;;5042502;27;88491;-57
2023/07/20 00:27:40;;;;;;;1.87;1.27;;;;;;;;;;5042609;27;88832;-56
2023/07/20 00:30:09;;;;;;;1.50;0.80;;;;;;;;;;5042715;27;87720;-56
2023/07/20 00:32:39;;;;;;;3.80;0.90;;;;;;;;;;5042354;27;88976;-56
2023/07/20 00:35:07;;;;;;;1.20;0.90;;;;;;;;;;5041609;27;87988;-56
2023/07/20 00:37:36;;;;;;;1.27;0.87;;;;;;;;;;5042426;27;88814;-57
2023/07/20 00:40:07;;;;;;;1.43;0.73;;;;;;;;;;5042704;28;87607;-57
2023/07/20 00:42:35;;;;;;;1.17;0.70;;;;;;;;;;5041275;27;89658;-56
2023/07/20 00:45:04;;;;;;;1.77;1.00;;;;;;;;;;5041780;27;89268;-56
2023/07/20 00:47:32;;;;;;;1.03;0.90;;;;;;;;;;5042211;27;88787;-56
2023/07/20 00:50:02;;;;;;;3.70;1.50;;;;;;;;;;5042179;27;87124;-56
2023/07/20 00:52:31;;;;;;;1.63;1.30;;;;;;;;;;5041913;27;88245;-56
2023/07/20 00:54:59;;;;;;;4.43;1.50;;;;;;;;;;5041846;27;88110;-56
2023/07/20 00:57:27;;;;;;;3.03;1.63;;;;;;;;;;5041691;27;87897;-56
2023/07/20 00:59:56;;;;;;;1.63;1.47;;;;;;;;;;5042422;28;87641;-56
2023/07/20 01:02:24;;;;;;;3.33;2.20;;;;;;;;;;5042061;27;88798;-56
2023/07/20 01:04:53;;;;;;;2.50;2.30;;;;;;;;;;5041738;27;87955;-56
2023/07/20 01:07:25;;;;;;;2.63;2.10;;;;;;;;;;5041928;27;87825;-56
2023/07/20 01:09:54;;;;;;;2.77;2.17;;;;;;;;;;5041677;27;87860;-56
2023/07/20 01:12:24;;;;;;;2.63;2.07;;;;;;;;;;5041473;27;88532;-56
2023/07/20 01:14:52;;;;;;;3.27;1.77;;;;;;;;;;5041769;27;88337;-56
2023/07/20 01:17:21;;;;;;;3.20;2.13;;;;;;;;;;5041545;27;87801;-56
2023/07/20 01:19:49;;;;;;;2.57;1.70;;;;;;;;;;5041664;27;87668;-56
2023/07/20 01:22:22;;;;;;;3.60;2.10;;;;;;;;;;5041654;27;88763;-56
2023/07/20 01:25:01;;;;;;;3.63;1.90;;;;;;;;;;5041651;27;88131;-56
2023/07/20 01:27:45;;;;;;;3.03;2.03;;;;;;;;;;5041769;27;87742;-57
2023/07/20 01:30:31;;;;;;;2.63;1.83;;;;;;;;;;5041849;27;87531;-56
2023/07/20 01:33:01;;;;;;;2.93;2.10;;;;;;;;;;5041020;27;89647;-56
2023/07/20 01:35:30;;;;;;;3.87;2.40;;;;;;;;;;5041018;27;89091;-56
2023/07/20 01:37:58;;;;;;;2.43;1.50;;;;;;;;;;5041372;27;89656;-56
2023/07/20 01:40:27;;;;;;;2.50;1.87;;;;;;;;;;5041542;27;87405;-56
2023/07/20 01:42:55;;;;;;;2.10;1.63;;;;;;;;;;5040574;27;88948;-56
2023/07/20 01:45:24;;;;;;;4.63;2.43;;;;;;;;;;5041333;27;89144;-56
2023/07/20 01:47:52;;;;;;;3.60;1.70;;;;;;;;;;5040850;27;87894;-56
2023/07/20 01:50:22;;;;;;;1.73;1.30;;;;;;;;;;5041552;27;87606;-56
2023/07/20 01:52:51;;;;;;;3.80;1.70;;;;;;;;;;5041259;27;88453;-56
2023/07/20 01:55:19;;;;;;;3.03;1.70;;;;;;;;;;5041041;27;87417;-56
2023/07/20 01:57:47;;;;;;;3.43;1.23;;;;;;;;;;5040601;27;87936;-56
2023/07/20 02:00:16;;;;;;;1.30;0.93;;;;;;;;;;5040882;27;87939;-56
2023/07/20 02:02:45;;;;;;;6.03;1.30;;;;;;;;;;5040858;27;88525;-56
2023/07/20 02:05:13;;;;;;;1.80;1.13;;;;;;;;;;5041024;27;87891;-56
2023/07/20 02:07:43;;;;;;;1.50;1.20;;;;;;;;;;5040957;27;87583;-56
2023/07/20 02:10:12;;;;;;;1.00;0.90;;;;;;;;;;5041071;27;87663;-56
2023/07/20 02:12:40;;;;;;;1.43;1.03;;;;;;;;;;5040798;27;88720;-56
2023/07/20 02:15:09;;;;;;;2.13;0.83;;;;;;;;;;5040875;27;88142;-56
2023/07/20 02:17:40;;;;;;;1.77;0.97;;;;;;;;;;5040760;27;88293;-56
2023/07/20 02:20:09;;;;;;;1.30;0.90;;;;;;;;;;5041199;27;87543;-56
2023/07/20 02:22:38;;;;;;;1.60;1.07;;;;;;;;;;5040507;27;88781;-56
2023/07/20 02:25:08;;;;;;;1.93;1.23;;;;;;;;;;5040249;27;89418;-56
2023/07/20 02:27:37;;;;;;;2.43;1.70;;;;;;;;;;5040760;27;89242;-56
2023/07/20 02:30:06;;;;;;;3.30;1.67;;;;;;;;;;5041045;27;87627;-56
2023/07/20 02:32:35;;;;;;;2.23;1.43;;;;;;;;;;5040281;27;88703;-56
2023/07/20 02:35:04;;;;;;;2.33;1.63;;;;;;;;;;5040506;27;87631;-56
2023/07/20 02:37:32;;;;;;;3.13;2.30;;;;;;;;;;5037141;27;87652;-56
2023/07/20 02:40:03;;;;;;;3.03;1.70;;;;;;;;;;5037756;27;87705;-56
2023/07/20 02:42:33;;;;;;;4.87;1.97;;;;;;;;;;5037422;28;89745;-56
2023/07/20 02:45:04;;;;;;;4.97;1.97;;;;;;;;;;5037422;28;88460;-57
2023/07/20 02:47:33;;;;;;;3.53;2.03;;;;;;;;;;5037469;27;87579;-56
2023/07/20 02:50:01;;;;;;;2.57;1.90;;;;;;;;;;5037158;28;88014;-56
2023/07/20 02:52:30;;;;;;;2.97;2.17;;;;;;;;;;5037304;28;89656;-56
2023/07/20 02:54:59;;;;;;;4.00;2.07;;;;;;;;;;5037457;28;88133;-56
2023/07/20 02:57:28;;;;;;;4.00;2.10;;;;;;;;;;5037129;28;87577;-56
2023/07/20 02:59:58;;;;;;;2.17;1.97;;;;;;;;;;5039176;28;87566;-56
2023/07/20 03:02:27;;;;;;;2.40;1.87;;;;;;;;;;5040869;28;88672;-56
2023/07/20 03:04:57;;;;;;;3.13;2.10;;;;;;;;;;5041047;28;88693;-56
2023/07/20 03:07:25;;;;;;;4.03;2.20;;;;;;;;;;5041060;28;90058;-56
2023/07/20 03:09:54;;;;;;;4.77;2.27;;;;;;;;;;5041119;28;87543;-56
2023/07/20 03:12:24;;;;;;;4.83;3.00;;;;;;;;;;5040291;28;88626;-56
2023/07/20 03:14:54;;;;;;;3.37;2.57;;;;;;;;;;5040081;28;89043;-56
2023/07/20 03:17:24;;;;;;;5.20;2.93;;;;;;;;;;5040828;27;90826;-56
2023/07/20 03:19:52;;;;;;;3.80;2.97;;;;;;;;;;5040946;28;87343;-56
2023/07/20 03:22:21;;;;;;;4.40;3.33;;;;;;;;;;5040577;28;88644;-56
2023/07/20 03:24:51;;;;;;;6.97;3.27;;;;;;;;;;5040340;27;88011;-56
2023/07/20 03:27:19;;;;;;;6.57;3.63;;;;;;;;;;5040858;28;87419;-56
2023/07/20 03:29:48;;;;;;;5.17;3.20;;;;;;;;;;5040803;27;87841;-56
2023/07/20 03:32:16;;;;;;;5.70;3.60;;;;;;;;;;5040561;28;88726;-56
2023/07/20 03:34:46;;;;;;;3.67;3.23;;;;;;;;;;5040321;28;88764;-56
2023/07/20 03:37:14;;;;;;;6.50;3.43;;;;;;;;;;5040129;28;88854;-56
2023/07/20 03:39:43;;;;;;;5.53;3.13;;;;;;;;;;5039899;27;87983;-56
2023/07/20 03:42:11;;;;;;;4.77;3.03;;;;;;;;;;5039948;28;88128;-56
2023/07/20 03:44:40;;;;;;;5.90;3.67;;;;;;;;;;5039663;28;88891;-56
2023/07/20 03:47:09;;;;;;;4.47;3.03;;;;;;;;;;5040123;28;87643;-56
2023/07/20 03:49:37;;;;;;;5.50;2.80;;;;;;;;;;5040262;28;87657;-56
2023/07/20 03:52:07;;;;;;;5.10;2.97;;;;;;;;;;5039863;28;89606;-56
2023/07/20 03:54:36;;;;;;;4.73;3.23;;;;;;;;;;5040143;28;87584;-56
2023/07/20 03:57:05;;;;;;;5.23;2.73;;;;;;;;;;5040093;27;88536;-57
2023/07/20 03:59:34;;;;;;;3.90;2.63;;;;;;;;;;5039995;27;88226;-56
2023/07/20 04:02:02;;;;;;;6.00;3.37;;;;;;;;;;5039503;28;88954;-56
2023/07/20 04:04:31;;;;;;;4.13;2.87;;;;;;;;;;5039155;28;88121;-56
2023/07/20 04:07:00;;;;;;;4.33;2.60;;;;;;;;;;5039794;28;89299;-56
2023/07/20 04:09:30;;;;;;;5.57;2.60;;;;;;;;;;5040205;28;87737;-56
2023/07/20 04:11:58;;;;;;;2.37;1.90;;;;;;;;;;5036261;27;88490;-56
2023/07/20 04:14:27;;;;;;;3.07;2.03;;;;;;;;;;5040287;27;89046;-56
2023/07/20 04:16:55;;;;;;;3.00;2.27;;;;;;;;;;5042652;27;87771;-56
2023/07/20 04:19:24;;;;;;;3.57;2.13;;;;;;;;;;5042578;27;87670;-56
2023/07/20 04:21:52;;;;;;;2.43;2.07;;;;;;;;;;5042789;27;87247;-56
2023/07/20 04:24:21;;;;;;;4.87;2.40;;;;;;;;;;5042345;27;88288;-56
2023/07/20 04:26:50;;;;;;;2.40;1.97;;;;;;;;;;5042156;27;88937;-56
2023/07/20 04:29:19;;;;;;;2.43;1.63;;;;;;;;;;5042175;27;87830;-56
2023/07/20 04:31:47;;;;;;;2.83;1.90;;;;;;;;;;5042173;27;87277;-56
2023/07/20 04:34:16;;;;;;;1.40;1.30;;;;;;;;;;5042211;27;88081;-56
2023/07/20 04:36:44;;;;;;;2.40;1.57;;;;;;;;;;5042252;27;87257;-57
2023/07/20 04:39:14;;;;;;;2.83;1.53;;;;;;;;;;5042617;27;87650;-56
2023/07/20 04:42:00;;;;;;;2.87;1.37;;;;;;;;;;5041612;27;89878;-56
2023/07/20 04:44:28;;;;;;;1.63;1.47;;;;;;;;;;5042160;28;89196;-56
2023/07/20 04:46:57;;;;;;;2.47;1.27;;;;;;;;;;5042288;27;88723;-56
2023/07/20 04:49:25;;;;;;;2.47;1.50;;;;;;;;;;5042401;27;87646;-56
2023/07/20 04:51:54;;;;;;;1.20;1.10;;;;;;;;;;5042199;28;89790;-56
2023/07/20 04:54:22;;;;;;;1.50;1.23;;;;;;;;;;5041513;27;89009;-56
2023/07/20 04:56:51;;;;;;;1.10;1.00;;;;;;;;;;5041592;27;88741;-56
2023/07/20 04:59:20;;;;;;;1.67;1.33;;;;;;;;;;5041847;27;87614;-56
2023/07/20 05:01:49;;;;;;;2.00;0.80;;;;;;;;;;5042054;27;87429;-56
2023/07/20 05:04:17;;;;;;;1.20;0.87;;;;;;;;;;5041904;27;87418;-56
2023/07/20 05:06:46;;;;;;;1.90;1.20;;;;;;;;;;5041974;27;87871;-56
2023/07/20 05:09:15;;;;;;;1.10;1.00;;;;;;;;;;5041902;27;87599;-56
2023/07/20 05:11:45;;;;;;;2.73;0.70;;;;;;;;;;5041620;27;88634;-56
2023/07/20 05:14:13;;;;;;;1.30;0.60;;;;;;;;;;5041685;27;88247;-56
2023/07/20 05:16:43;;;;;;;0.90;0.80;;;;;;;;;;5041692;27;88896;-56
2023/07/20 05:19:11;;;;;;;1.77;0.80;;;;;;;;;;5041510;27;87775;-57
2023/07/20 05:21:40;;;;;;;0.80;0.80;;;;;;;;;;5040981;27;88271;-57
2023/07/20 05:24:08;;;;;;;2.03;0.60;;;;;;;;;;5041496;27;89304;-56
2023/07/20 05:26:37;;;;;;;0.40;0.20;;;;;;;;;;5041195;27;87746;-56
2023/07/20 05:29:06;;;;;;;0.73;0.50;;;;;;;;;;5041866;27;87480;-56
2023/07/20 05:31:34;;;;;;;0.77;0.63;;;;;;;;;;5041432;27;88577;-56
2023/07/20 05:34:04;;;;;;;0.93;0.77;;;;;;;;;;5041228;27;88395;-56
2023/07/20 05:36:32;;;;;;;0.80;0.70;;;;;;;;;;5041567;27;87744;-56
2023/07/20 05:39:01;;;;;;;0.80;0.53;;;;;;;;;;5041692;27;87666;-56
2023/07/20 05:41:29;;;;;;;0.70;0.70;;;;;;;;;;5041125;27;88581;-56
2023/07/20 05:43:58;;;;;;;1.43;0.70;;;;;;;;;;5040252;27;89288;-56
2023/07/20 05:46:26;;;;;;;1.43;0.53;;;;;;;;;;5041360;27;88863;-56
2023/07/20 05:49:04;;;;;;;0.43;0.43;;;;;;;;;;5041744;28;87599;-56
2023/07/20 05:51:33;;;;;;;0.67;0.40;;;;;;;;;;5041426;28;88562;-56
2023/07/20 05:54:03;;;;;;;0.80;0.60;;;;;;;;;;5040692;27;88158;-56
2023/07/20 05:56:32;;;;;;;0.47;0.47;;;;;;;;;;5041190;27;87746;-56
2023/07/20 05:59:00;;;;;;;0.57;0.53;;;;;;;;;;5040844;27;87504;-56
2023/07/20 06:01:29;;;;;;;0.70;0.70;;;;;;;;;;5041181;27;88767;-56
2023/07/20 06:03:57;;;;;;;3.00;0.40;;;;;;;;;;5040982;27;87974;-56
2023/07/20 06:06:27;;;;;;;0.40;0.40;;;;;;;;;;5040751;27;87711;-56
2023/07/20 06:08:56;;;;;;;1.23;0.57;;;;;;;;;;5040408;27;87925;-56
2023/07/20 06:11:24;;;;;;;0.30;0.30;;;;;;;;;;5040917;27;88534;-56
2023/07/20 06:13:53;;;;;;;0.50;0.50;;;;;;;;;;5040907;27;87628;-56
2023/07/20 06:16:21;;;;;;;0.60;0.40;;;;;;;;;;5040761;27;87758;-56
2023/07/20 06:18:50;;;;;;;1.03;0.43;;;;;;;;;;5041286;27;87443;-56
2023/07/20 06:21:18;;;;;;;1.07;0.60;;;;;;;;;;5040817;27;87622;-56
2023/07/20 06:23:48;;;;;;;0.47;0.47;;;;;;;;;;5040709;28;89090;-56
2023/07/20 06:26:16;;;;;;;0.50;0.50;;;;;;;;;;5040510;27;87803;-56
2023/07/20 06:28:45;;;;;;;0.50;0.50;;;;;;;;;;5040836;27;87507;-56
2023/07/20 06:31:13;;;;;;;1.60;0.50;;;;;;;;;;5040717;27;89757;-56
2023/07/20 06:33:42;;;;;;;2.00;0.53;;;;;;;;;;5040456;27;88910;-56
2023/07/20 06:36:10;;;;;;;0.50;0.50;;;;;;;;;;5044209;27;88705;-56
2023/07/20 06:38:39;;;;;;;0.57;0.40;;;;;;;;;;5044173;27;87608;-56
2023/07/20 06:41:08;;;;;;;0.70;0.60;;;;;;;;;;5044143;27;88697;-56
2023/07/20 06:43:40;;;;;;;0.70;0.60;;;;;;;;;;5041866;27;87928;-56
2023/07/20 06:46:11;;;;;;;0.63;0.50;;;;;;;;;;5042731;27;87595;-57
2023/07/20 06:48:40;;;;;;;0.93;0.40;;;;;;;;;;5044275;27;87157;-56
2023/07/20 06:51:11;;;;;;;0.77;0.60;;;;;;;;;;5043923;27;88165;-57
2023/07/20 06:53:39;;;;;;;0.87;0.40;;;;;;;;;;5043713;27;87334;-56
2023/07/20 06:56:09;;;;;;;0.67;0.50;;;;;;;;;;5043854;27;87841;-56
2023/07/20 06:58:38;;;;;;;2.23;0.70;;;;;;;;;;5043171;27;87862;-56
2023/07/20 07:01:07;;;;;;;0.43;0.43;;;;;;;;;;5043946;27;88707;-56
2023/07/20 07:03:36;;;;;;;0.90;0.37;;;;;;;;;;5043941;27;87468;-56
2023/07/20 07:06:05;;;;;;;0.73;0.50;;;;;;;;;;5043463;27;87544;-56
2023/07/20 07:08:33;;;;;;;0.53;0.53;;;;;;;;;;5043524;28;87635;-56
2023/07/20 07:11:02;;;;;;;1.90;0.37;;;;;;;;;;5043832;27;87488;-56
2023/07/20 07:13:32;;;;;;;0.40;0.40;;;;;;;;;;5043749;27;88078;-56
2023/07/20 07:16:00;;;;;;;0.40;0.40;;;;;;;;;;5043821;27;87996;-56
2023/07/20 07:18:29;;;;;;;0.33;0.33;;;;;;;;;;5043739;27;87402;-56
2023/07/20 07:20:59;;;;;;;1.10;0.57;;;;;;;;;;5043103;27;88570;-57
2023/07/20 07:23:30;;;;;;;0.60;0.53;;;;;;;;;;5043061;28;90125;-56
2023/07/20 07:25:59;;;;;;;0.37;0.37;;;;;;;;;;5043288;27;89790;-56
2023/07/20 07:28:27;;;;;;;0.70;0.70;;;;;;;;;;5043833;27;87623;-56
2023/07/20 07:30:57;;;;;;;0.80;0.67;;;;;;;;;;5043259;27;88525;-57
2023/07/20 07:33:26;;;;;;;1.50;0.80;;;;;;;;;;5043229;27;88137;-56
2023/07/20 07:35:54;;;;;;;0.97;0.73;;;;;;;;;;5043072;27;87874;-56
2023/07/20 07:38:23;;;;;;;1.13;0.73;;;;;;;;;;5043631;27;87636;-56
2023/07/20 07:41:11;;;;;;;0.97;0.60;;;;;;;;;;5043212;27;90884;-56
2023/07/20 07:43:40;;;;;;;0.60;0.57;;;;;;;;;;5042756;27;89326;-56
2023/07/20 07:46:09;;;;;;;2.50;0.70;;;;;;;;;;5043024;27;88978;-56
2023/07/20 07:48:38;;;;;;;0.63;0.63;;;;;;;;;;5043153;27;87831;-56
2023/07/20 07:51:06;;;;;;;2.00;0.67;;;;;;;;;;5042928;27;88192;-56
2023/07/20 07:53:36;;;;;;;1.77;0.70;;;;;;;;;;5043085;27;87975;-56
2023/07/20 07:56:06;;;;;;;0.60;0.60;;;;;;;;;;5043046;27;87680;-56
2023/07/20 07:58:35;;;;;;;0.50;0.50;;;;;;;;;;5043016;27;87557;-56
2023/07/20 08:01:03;;;;;;;0.50;0.50;;;;;;;;;;5043079;27;88823;-56
2023/07/20 08:03:35;;;;;;;1.03;0.83;;;;;;;;;;5043043;27;87902;-57
2023/07/20 08:06:05;;;;;;;1.17;0.70;;;;;;;;;;5042941;27;87703;-56
2023/07/20 08:08:33;;;;;;;1.90;0.90;;;;;;;;;;5043160;27;87513;-56
2023/07/20 08:11:02;;;;;;;0.97;0.60;;;;;;;;;;5042632;27;88771;-56
2023/07/20 08:13:35;;;;;;;1.03;0.70;;;;;;;;;;5042586;27;90240;-56
2023/07/20 08:16:03;;;;;;;0.50;0.50;;;;;;;;;;5042494;27;88667;-56
2023/07/20 08:18:33;;;;;;;0.70;0.63;;;;;;;;;;5043013;27;87630;-56
2023/07/20 08:21:02;;;;;;;0.37;0.37;;;;;;;;;;5042442;27;89618;-56
2023/07/20 08:23:31;;;;;;;0.40;0.40;;;;;;;;;;5042431;27;88060;-56
2023/07/20 08:26:00;;;;;;;0.70;0.60;;;;;;;;;;5042524;27;87875;-56
2023/07/20 08:28:29;;;;;;;0.40;0.40;;;;;;;;;;5042840;27;87393;-56
2023/07/20 08:30:57;;;;;;;0.83;0.60;;;;;;;;;;5042757;27;87187;-56
2023/07/20 08:33:29;;;;;;;0.53;0.50;;;;;;;;;;5042554;27;90630;-56
2023/07/20 08:35:59;;;;;;;1.30;0.30;;;;;;;;;;5042127;27;88915;-56
2023/07/20 08:38:28;;;;;;;3.03;0.60;;;;;;;;;;5042052;27;87877;-56
2023/07/20 08:40:56;;;;;;;0.50;0.50;;;;;;;;;;5042378;27;88382;-56
2023/07/20 08:43:25;;;;;;;0.50;0.50;;;;;;;;;;5042102;27;88503;-56
2023/07/20 08:45:53;;;;;;;0.87;0.50;;;;;;;;;;5042309;27;87792;-56
2023/07/20 08:48:21;;;;;;;0.30;0.30;;;;;;;;;;5041911;27;87698;-56
2023/07/20 08:50:51;;;;;;;0.30;0.30;;;;;;;;;;5042086;27;88644;-56
2023/07/20 08:53:21;;;;;;;6.27;0.50;;;;;;;;;;5042317;27;87719;-56
2023/07/20 08:55:50;;;;;;;1.53;0.30;;;;;;;;;;5042458;27;89168;-56
2023/07/20 08:58:18;;;;;;;0.87;0.50;;;;;;;;;;5041343;27;87607;-56
2023/07/20 09:00:50;;;;;;;0.30;0.30;;;;;;;;;;5041967;27;87518;-56
2023/07/20 09:03:19;;;;;;;1.60;0.30;;;;;;;;;;5041522;27;89092;-56
2023/07/20 09:05:48;;;;;;;0.20;0.20;;;;;;;;;;5042173;27;88683;-56
2023/07/20 09:08:16;;;;;;;0.40;0.30;;;;;;;;;;5041973;27;87658;-56
2023/07/20 09:10:46;;;;;;;0.30;0.30;;;;;;;;;;5041936;27;87418;-56
2023/07/20 09:13:16;;;;;;;0.30;0.30;;;;;;;;;;5041934;27;88260;-55
2023/07/20 09:15:47;;;;;;;0.40;0.40;;;;;;;;;;5041666;27;87832;-56
2023/07/20 09:18:25;;;;;;;0.53;0.40;;;;;;;;;;5042052;27;88294;-56
2023/07/20 09:20:53;;;;;;;0.30;0.30;;;;;;;;;;5041861;27;88655;-56
2023/07/20 09:23:22;;;;;;;0.20;0.20;;;;;;;;;;5041727;27;87247;-56
2023/07/20 09:25:53;;;;;;;1.53;0.30;;;;;;;;;;5041388;27;87370;-56
2023/07/20 09:28:21;;;;;;;0.20;0.20;;;;;;;;;;5041553;27;87856;-56
2023/07/20 09:30:50;;;;;;;0.50;0.50;;;;;;;;;;5041567;27;89788;-56
2023/07/20 09:33:23;;;;;;;1.20;0.30;;;;;;;;;;5041559;27;88055;-56
2023/07/20 09:35:54;;;;;;;0.27;0.27;;;;;;;;;;5040963;27;87713;-56
2023/07/20 09:38:25;;;;;;;0.30;0.30;;;;;;;;;;5041590;27;87690;-56
2023/07/20 09:40:55;;;;;;;0.30;0.30;;;;;;;;;;5041718;27;88541;-56
2023/07/20 09:43:26;;;;;;;0.40;0.40;;;;;;;;;;5040968;27;88009;-56
2023/07/20 09:45:55;;;;;;;3.40;0.40;;;;;;;;;;5041710;27;87726;-56
2023/07/20 09:48:26;;;;;;;0.23;0.23;;;;;;;;;;5041609;27;87495;-57
2023/07/20 09:50:57;;;;;;;0.30;0.30;;;;;;;;;;5041209;28;88194;-56
2023/07/20 09:53:26;;;;;;;0.27;0.27;;;;;;;;;;5040757;27;90092;-56
2023/07/20 09:55:56;;;;;;;0.37;0.37;;;;;;;;;;5041319;27;88835;-56
2023/07/20 09:58:24;;;;;;;0.60;0.40;;;;;;;;;;5041067;27;87631;-56
2023/07/20 10:00:53;;;;;;;0.30;0.30;;;;;;;;;;5040910;27;90172;-56
2023/07/20 10:03:22;;;;;;;0.30;0.30;;;;;;;;;;5040709;27;88100;-56
2023/07/20 10:05:53;;;;;;;0.40;0.40;;;;;;;;;;5041058;27;88719;-56
2023/07/20 10:08:22;;;;;;;0.57;0.23;;;;;;;;;;5041171;27;87521;-56
2023/07/20 10:10:53;;;;;;;0.20;0.20;;;;;;;;;;5039985;27;88153;-56
2023/07/20 10:13:23;;;;;;;0.40;0.40;;;;;;;;;;5041161;27;89244;-56
2023/07/20 10:15:52;;;;;;;0.20;0.20;;;;;;;;;;5040779;27;87978;-56
2023/07/20 10:18:24;;;;;;;0.30;0.30;;;;;;;;;;5040715;27;87796;-56
2023/07/20 10:20:52;;;;;;;0.67;0.37;;;;;;;;;;5041200;27;88591;-56
2023/07/20 10:23:24;;;;;;;0.53;0.40;;;;;;;;;;5039625;27;87907;-57
2023/07/20 10:25:52;;;;;;;0.50;0.40;;;;;;;;;;5040922;27;87202;-56
2023/07/20 10:28:21;;;;;;;0.20;0.20;;;;;;;;;;5040855;27;87450;-56
2023/07/20 10:30:51;;;;;;;0.40;0.40;;;;;;;;;;5040412;27;89769;-56
2023/07/20 10:33:20;;;;;;;0.30;0.30;;;;;;;;;;5040788;28;91455;-56
2023/07/20 10:35:54;;;;;;;0.37;0.37;;;;;;;;;;5040805;27;87983;-56
2023/07/20 10:38:38;;;;;;;0.30;0.30;;;;;;;;;;5040768;27;87629;-56
2023/07/20 10:41:09;;;;;;;0.50;0.50;;;;;;;;;;5040499;27;88615;-56
2023/07/20 10:43:38;;;;;;;0.57;0.30;;;;;;;;;;5035616;27;89559;-56
2023/07/20 10:46:08;;;;;;;0.40;0.40;;;;;;;;;;5037467;27;88814;-56
2023/07/20 10:48:38;;;;;;;0.40;0.40;;;;;;;;;;5037532;27;87616;-56
2023/07/20 10:51:13;;;;;;;0.40;0.40;;;;;;;;;;5037415;27;89414;-56
2023/07/20 10:53:41;;;;;;;0.40;0.40;;;;;;;;;;5037216;27;87366;-56
2023/07/20 10:56:10;;;;;;;0.40;0.40;;;;;;;;;;5037192;27;88015;-56
2023/07/20 10:58:38;;;;;;;0.30;0.30;;;;;;;;;;5037204;27;87694;-56
2023/07/20 11:01:08;;;;;;;1.47;0.40;;;;;;;;;;5037503;27;87992;-56
2023/07/20 11:03:39;;;;;;;0.47;0.47;;;;;;;;;;5037337;27;89589;-56
2023/07/20 11:06:27;;;;;;;0.70;0.50;;;;;;;;;;5037257;27;87601;-55
2023/07/20 11:08:56;;;;;;;0.30;0.30;;;;;;;;;;5037065;27;88434;-56
2023/07/20 11:11:25;;;;;;;0.40;0.40;;;;;;;;;;5037148;27;88580;-56
2023/07/20 11:13:57;;;;;;;0.57;0.47;;;;;;;;;;5037096;27;88111;-56
2023/07/20 11:16:40;;;;;;;1.33;0.50;;;;;;;;;;5036780;27;87964;-56
2023/07/20 11:19:16;;;;;;;0.67;0.67;;;;;;;;;;5037150;27;87741;-56
2023/07/20 11:22:07;;;;;;;2.67;0.60;;;;;;;;;;5040776;27;88934;-56
2023/07/20 11:24:35;;;;;;;0.63;0.60;;;;;;;;;;5040644;27;88062;-57
2023/07/20 11:27:04;;;;;;;0.60;0.60;;;;;;;;;;5040811;27;87723;-56
2023/07/20 11:29:32;;;;;;;1.53;1.30;;;;;;;;;;5040419;27;87684;-56
2023/07/20 11:32:03;;;;;;;2.00;1.30;;;;;;;;;;5040341;27;88704;-56
2023/07/20 11:34:33;;;;;;;1.23;1.07;;;;;;;;;;5040107;27;89067;-56
2023/07/20 11:37:02;;;;;;;1.50;1.00;;;;;;;;;;5040621;27;88642;-56
2023/07/20 11:39:33;;;;;;;1.10;0.97;;;;;;;;;;5038365;27;87560;-56
2023/07/20 11:42:02;;;;;;;1.87;1.13;;;;;;;;;;5039731;27;88736;-56
2023/07/20 11:44:33;;;;;;;1.97;1.53;;;;;;;;;;5040436;27;88052;-56
2023/07/20 11:47:04;;;;;;;3.20;1.20;;;;;;;;;;5040215;27;87994;-56
2023/07/20 11:49:36;;;;;;;1.50;1.40;;;;;;;;;;5040544;27;87577;-57
2023/07/20 11:52:05;;;;;;;1.47;1.33;;;;;;;;;;5040346;28;89733;-56
2023/07/20 11:54:34;;;;;;;2.17;1.40;;;;;;;;;;5040005;27;88129;-57
2023/07/20 11:57:03;;;;;;;4.03;1.43;;;;;;;;;;5039699;28;88152;-56
2023/07/20 11:59:31;;;;;;;1.47;1.27;;;;;;;;;;5039593;27;88019;-56
2023/07/20 12:02:00;;;;;;;2.87;1.50;;;;;;;;;;5040360;27;88753;-56
2023/07/20 12:04:30;;;;;;;2.00;1.37;;;;;;;;;;5040027;27;88063;-56
2023/07/20 12:06:58;;;;;;;0.93;0.90;;;;;;;;;;5039543;27;87812;-56
2023/07/20 12:09:27;;;;;;;1.70;1.07;;;;;;;;;;5040025;28;88231;-56
2023/07/20 12:12:15;;;;;;;1.73;0.90;;;;;;;;;;5039657;27;88244;-56
2023/07/20 12:14:44;;;;;;;1.73;1.20;;;;;;;;;;5039373;27;87970;-56
2023/07/20 12:17:12;;;;;;;1.17;1.07;;;;;;;;;;5040003;27;89165;-56
2023/07/20 12:19:42;;;;;;;2.57;1.20;;;;;;;;;;5039720;27;87646;-56
2023/07/20 12:22:11;;;;;;;1.73;1.27;;;;;;;;;;5039574;27;89533;-57
2023/07/20 12:24:39;;;;;;;1.33;1.17;;;;;;;;;;5039309;27;88927;-56
2023/07/20 12:27:08;;;;;;;1.60;1.30;;;;;;;;;;5039290;27;89686;-56
2023/07/20 12:29:36;;;;;;;1.40;1.07;;;;;;;;;;5039445;27;87643;-56
2023/07/20 12:32:06;;;;;;;1.83;1.30;;;;;;;;;;5038306;27;89647;-56
2023/07/20 12:34:34;;;;;;;3.80;1.63;;;;;;;;;;5039327;27;88088;-56
2023/07/20 12:37:07;;;;;;;2.73;1.30;;;;;;;;;;5039418;27;88185;-56
2023/07/20 12:39:39;;;;;;;1.20;1.10;;;;;;;;;;5039355;27;87521;-56
2023/07/20 12:42:08;;;;;;;1.33;1.23;;;;;;;;;;5038571;27;88356;-56
2023/07/20 12:44:36;;;;;;;3.23;1.03;;;;;;;;;;5039386;27;88385;-56
2023/07/20 12:47:05;;;;;;;1.80;1.20;;;;;;;;;;5039349;27;88277;-56
2023/07/20 12:49:33;;;;;;;1.57;1.30;;;;;;;;;;5039331;27;88310;-56
2023/07/20 12:52:02;;;;;;;2.77;2.10;;;;;;;;;;5039059;27;88654;-57
2023/07/20 12:54:31;;;;;;;3.17;1.73;;;;;;;;;;5038666;27;89334;-56
2023/07/20 12:57:00;;;;;;;2.90;2.17;;;;;;;;;;5038932;27;87766;-56
2023/07/20 12:59:32;;;;;;;1.93;1.60;;;;;;;;;;5038888;27;88109;-56
2023/07/20 13:02:01;;;;;;;3.83;2.07;;;;;;;;;;5039049;27;89923;-56
2023/07/20 13:04:30;;;;;;;2.83;2.30;;;;;;;;;;5038790;27;88120;-56
2023/07/20 13:06:59;;;;;;;3.97;2.70;;;;;;;;;;5038999;27;87908;-56
2023/07/20 13:09:28;;;;;;;3.30;2.50;;;;;;;;;;5038905;27;88003;-56
2023/07/20 13:11:58;;;;;;;2.50;1.87;;;;;;;;;;5038668;27;88379;-56
2023/07/20 13:14:26;;;;;;;2.87;2.03;;;;;;;;;;5038562;27;89276;-56
2023/07/20 13:16:55;;;;;;;2.83;1.90;;;;;;;;;;5038853;27;87378;-56
2023/07/20 13:19:23;;;;;;;2.87;2.07;;;;;;;;;;5038755;27;87702;-56
2023/07/20 13:21:52;;;;;;;2.77;2.10;;;;;;;;;;5038884;27;88477;-56
2023/07/20 13:24:20;;;;;;;2.37;1.63;;;;;;;;;;5038631;27;89161;-56
2023/07/20 13:26:49;;;;;;;2.23;1.50;;;;;;;;;;5038969;27;87772;-56
2023/07/20 13:29:19;;;;;;;1.97;1.47;;;;;;;;;;5038806;27;87502;-56
2023/07/20 13:31:47;;;;;;;3.20;1.77;;;;;;;;;;5038216;27;88842;-56
2023/07/20 13:34:18;;;;;;;3.90;1.97;;;;;;;;;;5038741;27;87536;-56
2023/07/20 13:36:47;;;;;;;3.03;1.77;;;;;;;;;;5038689;27;88904;-56
2023/07/20 13:39:16;;;;;;;2.83;2.00;;;;;;;;;;5038084;27;88070;-56
2023/07/20 13:41:46;;;;;;;2.03;1.30;;;;;;;;;;5038074;27;88560;-56
2023/07/20 13:44:15;;;;;;;3.30;1.63;;;;;;;;;;5037969;27;87737;-56
2023/07/20 13:46:51;;;;;;;1.20;1.07;;;;;;;;;;5038555;27;87771;-56
2023/07/20 13:49:20;;;;;;;2.30;1.40;;;;;;;;;;5038613;27;87532;-56
2023/07/20 13:51:51;;;;;;;1.43;1.33;;;;;;;;;;5038321;27;88365;-56
2023/07/20 13:54:22;;;;;;;1.83;1.40;;;;;;;;;;5037508;27;88891;-56
2023/07/20 13:56:53;;;;;;;1.13;1.03;;;;;;;;;;5038654;27;87535;-56
2023/07/20 13:59:22;;;;;;;2.07;1.00;;;;;;;;;;5037870;27;87663;-56
2023/07/20 14:01:52;;;;;;;0.90;0.83;;;;;;;;;;5038010;28;89756;-56
2023/07/20 14:04:41;;;;;;;0.90;0.80;;;;;;;;;;5037948;27;88798;-56
2023/07/20 14:07:11;;;;;;;2.17;1.20;;;;;;;;;;5037570;27;89737;-56
2023/07/20 14:09:39;;;;;;;1.63;0.90;;;;;;;;;;5038582;27;88262;-56
2023/07/20 14:12:28;;;;;;;1.23;0.90;;;;;;;;;;5037999;27;88447;-56
2023/07/20 14:14:57;;;;;;;1.47;1.10;;;;;;;;;;5037965;27;89215;-56
2023/07/20 14:17:27;;;;;;;0.60;0.60;;;;;;;;;;5037566;27;87503;-56
2023/07/20 14:19:55;;;;;;;1.43;1.20;;;;;;;;;;5038293;27;87350;-56
2023/07/20 14:22:24;;;;;;;1.10;0.80;;;;;;;;;;5037829;27;89028;-56
2023/07/20 14:24:54;;;;;;;2.23;1.10;;;;;;;;;;5038003;27;88043;-56
2023/07/20 14:27:23;;;;;;;1.60;1.10;;;;;;;;;;5037770;27;88833;-56
2023/07/20 14:29:51;;;;;;;1.03;0.87;;;;;;;;;;5037305;27;88347;-56
2023/07/20 14:32:19;;;;;;;1.60;1.07;;;;;;;;;;5037735;27;89750;-56
2023/07/20 14:34:49;;;;;;;1.10;1.00;;;;;;;;;;5037526;27;88466;-56
2023/07/20 14:37:18;;;;;;;1.63;1.03;;;;;;;;;;5037344;27;87524;-56
2023/07/20 14:39:48;;;;;;;1.80;1.40;;;;;;;;;;5037751;27;87690;-56
2023/07/20 14:42:17;;;;;;;3.63;1.57;;;;;;;;;;5037010;28;88568;-56
2023/07/20 14:44:47;;;;;;;1.50;1.10;;;;;;;;;;5037442;27;88044;-56
2023/07/20 14:47:16;;;;;;;1.00;1.00;;;;;;;;;;5037629;27;87597;-56
2023/07/20 14:49:44;;;;;;;1.90;1.10;;;;;;;;;;5037825;27;87743;-56
2023/07/20 14:52:14;;;;;;;1.33;1.23;;;;;;;;;;5037052;27;88612;-56
2023/07/20 14:54:44;;;;;;;1.03;0.80;;;;;;;;;;5037215;27;89191;-56
2023/07/20 14:57:14;;;;;;;1.40;1.07;;;;;;;;;;5040643;27;89763;-56